• Join FlightAware (Why Join?)
  • Login
  • US Flag 
11:07AM EDT


 

Airport Tracker/Info


-or-


 

Live Flight TrackerFlight Track Log ✈ N6149S ✈ 19-Sep-2013 ✈ KHAO - KAGC

Flight Track Log - Related Links

Times and Time Zones

All times are in EDT time to prevent confusion due to time zone crossing. See the N6149S flight status page for this flight to view local times or setup timezone preferences in your user account.

Time Position Orientation Groundspeed Altitude Reporting Facility
EDT Latitude Longitude Course Direction KTS MPH feet Rate Location/Type
06:32PM 39.3833 -84.4833 65° Northeast 98 113 2,500  Level Cincinnati TRACON
06:33PM 39.3925 -84.4583 65° Northeast 105 121 3,000 660 Climbing Indianapolis Center
06:33PM 39.3942 -84.4506 74° East 136 157 3,200 720 Climbing Indianapolis Center
06:34PM 39.3986 -84.4217 79° East 109 125 3,700 540 Climbing Indianapolis Center
06:34PM 39.4003 -84.4133 75° East 108 124 3,800 600 Climbing Indianapolis Center
06:35PM 39.4011 -84.3786 88° East 111 128 4,400 540 Climbing Indianapolis Center
06:35PM 39.4031 -84.3728 67° East 110 127 4,400 540 Level Indianapolis Center
06:36PM 39.4050 -84.3414 85° East 113 130 4,900 540 Climbing Indianapolis Center
06:36PM 39.4075 -84.3339 67° East 111 128 5,000 360 Climbing Indianapolis Center
06:37PM 39.4111 -84.3044 81° East 108 124 5,300 360 Climbing Indianapolis Center
06:37PM 39.4122 -84.2947 82° East 111 128 5,400 900 Climbing Indianapolis Center
06:38PM 39.4178 -84.2622 78° East 114 131 6,200 960 Climbing Indianapolis Center
06:38PM 39.4194 -84.2461 82° East 113 130 6,400 600 Climbing Indianapolis Center
06:39PM 39.4231 -84.2142 82° East 122 140 6,900 480 Climbing Indianapolis Center
06:39PM 39.4253 -84.2014 77° East 122 140 6,900 60 Level Indianapolis Center
06:40PM 39.4303 -84.1642 80° East 148 170 7,000 60 Climbing Indianapolis Center
06:40PM 39.4322 -84.1475 81° East 152 175 7,000 -120 Level Indianapolis Center
06:41PM 39.4364 -84.1081 82° East 165 190 6,900  Descending Indianapolis Center
06:41PM 39.4381 -84.0900 83° East 162 186 7,000 60 Climbing Indianapolis Center
06:42PM 39.4411 -84.0439 85° East 165 190 7,000 -120 Level Indianapolis Center
06:42PM 39.4431 -84.0331 77° East 162 186 6,900  Descending Indianapolis Center
06:43PM 39.4472 -83.9853 84° East 167 192 7,000  Climbing Indianapolis Center
06:43PM 39.4483 -83.9733 83° East 165 190 6,900 -120 Descending Indianapolis Center
06:44PM 39.4575 -83.9272 76° East 163 188 6,900  Level Indianapolis Center
06:44PM 39.4647 -83.9064 66° East 165 190 6,900 60 Level Indianapolis Center
06:45PM 39.4842 -83.8572 63° Northeast 160 184 7,000  Climbing Indianapolis Center
06:46PM 39.5067 -83.8100 58° Northeast 157 181 7,000  Level Indianapolis Center
06:47PM 39.5344 -83.7692 49° Northeast 154 177 7,000  Level Indianapolis Center
06:48PM 39.5533 -83.7319 57° Northeast 148 170 7,000 -120 Level Indianapolis Center
06:48PM 39.5572 -83.7261 49° Northeast 149 171 6,900 -180 Descending Indianapolis Center
06:49PM 39.5714 -83.6997 55° Northeast 149 171 6,900  Level Indianapolis Center
06:49PM 39.5814 -83.6828 53° Northeast 149 171 6,900 60 Level Indianapolis Center
06:50PM 39.5950 -83.6522 60° Northeast 147 169 7,000 60 Climbing Indianapolis Center
06:50PM 39.6097 -83.6283 51° Northeast 151 174 7,000  Level Indianapolis Center
06:51PM 39.6186 -83.6072 61° Northeast 150 173 7,000 -120 Level Indianapolis Center
06:51PM 39.6306 -83.5819 58° Northeast 150 173 6,900 -120 Descending Indianapolis Center
06:52PM 39.6403 -83.5592 61° Northeast 152 175 6,900  Level Indianapolis Center
06:52PM 39.6528 -83.5367 54° Northeast 151 174 6,900 60 Level Indianapolis Center
06:53PM 39.6639 -83.5114 60° Northeast 148 170 7,000  Climbing Indianapolis Center
06:53PM 39.6747 -83.4922 54° Northeast 147 169 6,900  Descending Indianapolis Center
06:54PM 39.6853 -83.4661 62° Northeast 148 170 7,000 60 Climbing Indianapolis Center
06:55PM 39.6972 -83.4478 50° Northeast 148 170 7,000  Level Indianapolis Center
06:55PM 39.7106 -83.4239 54° Northeast 148 170 7,000 -120 Level Indianapolis Center
06:56PM 39.7244 -83.3958 57° Northeast 148 170 6,900  Descending Indianapolis Center
06:56PM 39.7319 -83.3786 60° Northeast 145 167 7,000 60 Climbing Indianapolis Center
06:57PM 39.7469 -83.3531 53° Northeast 146 168 7,000 -120 Level Indianapolis Center
06:57PM 39.7597 -83.3314 53° Northeast 143 165 6,900  Descending Indianapolis Center
06:58PM 39.7700 -83.3122 55° Northeast 143 165 7,000 60 Climbing Indianapolis Center
06:58PM 39.7808 -83.2886 59° Northeast 140 161 7,000  Level Indianapolis Center
06:59PM 39.7919 -83.2706 51° Northeast 141 162 7,000 -120 Level Indianapolis Center
06:59PM 39.8036 -83.2489 55° Northeast 144 166 6,900 -120 Descending Indianapolis Center
07:00PM 39.8147 -83.2292 54° Northeast 142 163 6,900  Level Indianapolis Center
07:00PM 39.8267 -83.2061 56° Northeast 141 162 6,900  Level Indianapolis Center
07:01PM 39.8381 -83.1894 48° Northeast 139 160 6,900  Level Indianapolis Center
07:01PM 39.8517 -83.1639 55° Northeast 145 167 6,900  Level Indianapolis Center
07:02PM 39.8650 -83.1389 55° Northeast 142 163 6,900  Level Indianapolis Center
07:02PM 39.8747 -83.1214 54° Northeast 142 163 6,900  Level Indianapolis Center
07:03PM 39.8869 -83.0967 57° Northeast 143 165 6,900  Level Indianapolis Center
07:03PM 39.8981 -83.0761 55° Northeast 141 162 6,900  Level Indianapolis Center
07:04PM 39.9092 -83.0539 57° Northeast 142 163 6,900 60 Level Indianapolis Center
07:04PM 39.9167 -83.0356 62° Northeast 142 163 7,000 60 Climbing Indianapolis Center
07:05PM 39.9294 -83.0106 56° Northeast 142 163 7,000  Level Indianapolis Center
07:05PM 39.9403 -82.9875 58° Northeast 142 163 7,000  Level Indianapolis Center
07:06PM 39.9514 -82.9675 54° Northeast 143 165 7,000  Level Indianapolis Center
07:06PM 39.9583 -82.9494 63° Northeast 143 165 7,000 -120 Level Indianapolis Center
07:07PM 39.9725 -82.9239 54° Northeast 143 165 6,900 -120 Descending Indianapolis Center
07:07PM 39.9819 -82.9011 62° Northeast 139 160 6,900  Level Indianapolis Center
07:08PM 39.9978 -82.8733 53° Northeast 138 159 6,900  Level Indianapolis Center
07:08PM 40.0047 -82.8611 53° Northeast 145 167 6,900  Level Indianapolis Center
07:09PM 40.0206 -82.8314 55° Northeast 142 163 6,900 60 Level Indianapolis Center
07:09PM 40.0250 -82.8233 54° Northeast 141 162 7,000 60 Climbing Indianapolis Center
07:10PM 40.0428 -82.7900 55° Northeast 140 161 7,000 -120 Level Indianapolis Center
07:10PM 40.0475 -82.7833 47° Northeast 138 159 6,900 -120 Descending Indianapolis Center
07:11PM 40.0706 -82.7406 55° Northeast 139 160 6,900  Level Indianapolis Center
07:12PM 40.0872 -82.7078 56° Northeast 139 160 7,000  Climbing Indianapolis Center
07:12PM 40.0933 -82.6975 52° Northeast 140 161 6,900  Descending Indianapolis Center
07:13PM 40.1103 -82.6667 54° Northeast 141 162 7,000 60 Climbing Indianapolis Center
07:13PM 40.1164 -82.6547 56° Northeast 140 161 7,000 -120 Level Indianapolis Center
07:14PM 40.1317 -82.6244 57° Northeast 140 161 6,900  Descending Indianapolis Center
07:14PM 40.1392 -82.6117 52° Northeast 141 162 7,000 60 Climbing Indianapolis Center
07:15PM 40.1542 -82.5703 65° Northeast 141 162 7,000  Level Indianapolis Center
07:15PM 40.1536 -82.5675 105° East 146 168 7,000 -120 Level Indianapolis Center
07:16PM 40.1542 -82.5156 89° East 152 175 6,900 -120 Descending Indianapolis Center
07:16PM 40.1539 -82.5158 217° Southwest 151 174 6,900  Level Indianapolis Center
07:17PM 40.1608 -82.4647 80° East 144 166 6,900 60 Level Indianapolis Center
07:17PM 40.1606 -82.4647 180° South 144 166 7,000  Climbing Indianapolis Center
07:18PM 40.1614 -82.4128 89° East 149 171 6,900 -120 Descending Indianapolis Center
07:18PM 40.1606 -82.4114 128° Southeast 147 169 6,900  Level Indianapolis Center
07:19PM 40.1611 -82.3583 89° East 145 167 6,900  Level Indianapolis Center
07:20PM 40.1631 -82.3069 87° East 142 163 7,000  Climbing Indianapolis Center
07:21PM 40.1653 -82.2531 87° East 148 170 6,900 -60 Descending Indianapolis Center
07:22PM 40.1708 -82.1906 83° East 144 166 6,900  Level Indianapolis Center
07:23PM 40.1764 -82.1381 82° East 144 166 6,900  Level Indianapolis Center
07:24PM 40.1800 -82.0853 85° East 146 168 6,900  Level Indianapolis Center
07:25PM 40.1825 -82.0319 86° East 147 169 6,900  Level Indianapolis Center
07:26PM 40.1867 -81.9775 84° East 150 173 6,900  Level Indianapolis Center
07:27PM 40.1942 -81.9256 79° East 147 169 6,900  Level Indianapolis Center
07:28PM 40.2047 -81.8736 75° East 148 170 6,900  Level Indianapolis Center
07:30PM 40.2136 -81.8092 80° East 150 173 6,900  Level Indianapolis Center
07:31PM 40.2189 -81.7547 83° East 152 175 6,900  Level Indianapolis Center
07:32PM 40.2206 -81.7014 88° East 148 170 6,900  Level Indianapolis Center
07:33PM 40.2186 -81.6464 93° East 150 173 6,900  Level Indianapolis Center
07:34PM 40.2197 -81.5900 89° East 153 176 6,900  Level Indianapolis Center
07:35PM 40.2236 -81.5369 84° East 147 169 6,900  Level Indianapolis Center
07:36PM 40.2286 -81.4822 83° East 150 173 6,900  Level Indianapolis Center
07:37PM 40.2314 -81.4294 86° East 145 167 6,900  Level Indianapolis Center
07:38PM 40.2364 -81.3750 83° East 149 171 6,900  Level Indianapolis Center
07:39PM 40.2361 -81.3094 90° East 153 176 6,900  Level Indianapolis Center
07:40PM 40.2356 -81.2553 91° East 149 171 6,900  Level Indianapolis Center
07:41PM 40.2378 -81.2019 87° East 147 169 6,900  Level Indianapolis Center
07:42PM 40.2406 -81.1483 86° East 147 169 6,900  Level Indianapolis Center
07:43PM 40.2472 -81.0908 81° East 152 175 6,900  Level Cleveland Center
07:44PM 40.2547 -81.0375 80° East 150 173 6,900  Level Cleveland Center
07:45PM 40.2631 -80.9742 80° East 149 171 6,900  Level Cleveland Center
07:46PM 40.2683 -80.9200 83° East 150 173 6,900  Level Cleveland Center
07:47PM 40.2744 -80.8667 81° East 149 171 6,900  Level Cleveland Center
07:48PM 40.2797 -80.8117 83° East 152 175 6,900  Level Cleveland Center
07:49PM 40.2869 -80.7578 80° East 152 175 6,900  Level Cleveland Center
07:50PM 40.2928 -80.7036 82° East 151 174 6,900 -60 Level Cleveland Center
07:51PM 40.2961 -80.6369 86° East 153 176 6,800  Descending Cleveland Center
07:52PM 40.2994 -80.5814 85° East 153 176 6,900 -240 Climbing Cleveland Center
07:53PM 40.3006 -80.5222 89° East 163 188 6,400 -540 Descending Cleveland Center
07:54PM 40.2950 -80.4636 97° East 162 186 5,900 -300 Descending Cleveland Center
07:55PM 40.2917 -80.4050 94° East 162 186 5,900 -300 Level Cleveland Center
07:56PM 40.2872 -80.3464 96° East 165 190 5,300 -600 Descending Cleveland Center
07:57PM 40.2831 -80.2764 94° East 164 189 4,700 -600 Descending Cleveland Center
07:58PM 40.2800 -80.2178 94° East 164 189 4,100 -540 Descending Cleveland Center
07:59PM 40.2786 -80.1617 92° East 158 182 3,600 -540 Descending Cleveland Center
08:01PM 40.2811 -80.1061 87° East 156 180 3,000 -360 Descending Cleveland Center
08:02PM 40.2831 -80.0417 88° East 152 175 2,900 -120 Descending Cleveland Center
08:03PM 40.2836 -79.9897 89° East 147 169 2,800 -60 Descending Cleveland Center
08:04PM 40.2842 -79.9361 89° East 147 169 2,800  Level Cleveland Center
08:05PM 40.2847 -79.8836 89° East 146 168 2,900  Climbing Cleveland Center
08:06PM 40.3017 -79.8375 64° Northeast 147 169 2,800 -300 Descending Cleveland Center
08:07PM 40.3378 -79.8331 North 142 163 2,300 -540 Descending Cleveland Center
08:08PM 40.3558 -79.8731 301° West 120 138 1,800 -480 Descending Cleveland Center
08:09PM 40.3556 -79.9083 269° West 107 123 1,400 -360 Descending Cleveland Center
08:10PM 40.3561 -79.9333 272° West 97 112 1,100 -300 Descending Cleveland Center